Time;durP1;ratioP1;P1;durP2;ratioP2;P2;SDS_P1;SDS_P2;PMS_P1;PMS_P2;Temp;Humidity;BMP_temperature;BMP_pressure;BME280_temperature;BME280_humidity;BME280_pressure;Samples;Min_cycle;Max_cycle;Signal;HPM_P1;HPM_P2
2024/01/19 00:01:11;;;;;;;25.80;18.30;;;;;;;-144.99;100.00;76097.00;108424;1250;73379;-73
2024/01/19 00:03:38;;;;;;;31.30;20.60;;;;;;;-144.99;100.00;76101.39;108442;1249;72650;-72
2024/01/19 00:06:05;;;;;;;30.10;20.00;;;;;;;-144.99;100.00;76102.97;108429;1250;61116;-72
2024/01/19 00:08:32;;;;;;;32.30;21.50;;;;;;;-144.99;100.00;76108.94;108447;1250;61176;-74
2024/01/19 00:10:59;;;;;;;32.30;21.20;;;;;;;-144.99;100.00;76112.52;108454;1250;74837;-72
2024/01/19 00:13:26;;;;;;;31.80;21.50;;;;;;;-144.99;100.00;76116.09;108462;1249;72476;-73
2024/01/19 00:15:54;;;;;;;32.50;21.40;;;;;;;-144.99;100.00;76128.83;108387;1254;72664;-73
2024/01/19 00:18:23;;;;;;;30.20;20.90;;;;;;;-144.99;100.00;76139.56;108378;1250;61061;-72
2024/01/19 00:20:49;;;;;;;28.90;19.50;;;;;;;-144.99;100.00;76147.52;108463;1250;61234;-72
2024/01/19 00:23:16;;;;;;;29.70;19.90;;;;;;;-144.99;100.00;76153.09;108431;1250;74542;-73
2024/01/19 00:25:43;;;;;;;27.40;19.00;;;;;;;-144.99;100.00;76167.80;108410;1249;73576;-73
2024/01/19 00:28:10;;;;;;;31.00;20.90;;;;;;;-144.99;100.00;76174.97;108424;1250;71144;-73
2024/01/19 00:30:37;;;;;;;30.80;20.70;;;;;;;-144.99;100.00;76178.15;108429;1250;60972;-73
2024/01/19 00:33:03;;;;;;;27.40;19.50;;;;;;;-144.99;100.00;76190.09;108446;1249;61068;-73
2024/01/19 00:35:30;;;;;;;29.60;19.20;;;;;;;-144.99;100.00;76194.86;108441;1249;74715;-73
2024/01/19 00:37:57;;;;;;;33.10;20.70;;;;;;;-144.99;100.00;76194.06;108416;1250;73472;-73
2024/01/19 00:40:24;;;;;;;34.70;21.20;;;;;;;-144.99;100.00;76199.23;108434;1250;72644;-73
2024/01/19 00:42:51;;;;;;;29.60;19.70;;;;;;;-144.99;100.00;76209.58;108445;1250;61184;-73
2024/01/19 00:45:18;;;;;;;28.50;18.40;;;;;;;-144.99;100.00;76215.14;108435;1249;61076;-73
2024/01/19 00:47:44;;;;;;;28.00;18.90;;;;;;;-144.99;100.00;76215.95;108425;1250;73080;-73
2024/01/19 00:50:13;;;;;;;28.00;19.60;;;;;;;-144.99;100.00;76217.94;108474;1249;72946;-73
2024/01/19 00:52:40;;;;;;;29.20;18.90;;;;;;;-144.99;100.00;76221.91;108417;1250;72345;-73
2024/01/19 00:55:09;;;;;;;26.50;18.20;;;;;;;-144.99;100.00;76224.29;108461;1250;59765;-72
2024/01/19 00:57:35;;;;;;;29.50;17.90;;;;;;;-144.99;100.00;76230.66;108424;1250;61098;-73
2024/01/19 01:00:03;;;;;;;25.60;16.70;;;;;;;-144.99;100.00;76238.21;108428;1250;74479;-73
2024/01/19 01:02:31;;;;;;;22.50;15.20;;;;;;;-144.99;100.00;76243.39;108448;1250;73329;-73
2024/01/19 01:04:58;;;;;;;20.90;14.30;;;;;;;-144.99;100.00;76244.98;108432;1249;72680;-73
2024/01/19 01:07:24;;;;;;;18.80;13.60;;;;;;;-144.99;100.00;76244.58;108432;1253;63679;-73
2024/01/19 01:09:51;;;;;;;19.60;13.40;;;;;;;-144.99;100.00;76250.95;108406;1249;61064;-73
2024/01/19 01:12:18;;;;;;;22.40;14.60;;;;;;;-144.99;100.00;76245.37;108451;1250;72867;-73
2024/01/19 01:14:46;;;;;;;17.20;12.20;;;;;;;-144.99;100.00;76244.18;108427;1250;74523;-73
2024/01/19 01:17:13;;;;;;;21.40;12.90;;;;;;;-144.99;100.00;76244.98;108408;1250;71464;-72
2024/01/19 01:19:40;;;;;;;19.30;13.10;;;;;;;-144.99;100.00;76245.77;108399;1249;59979;-72
2024/01/19 01:22:09;;;;;;;17.50;12.60;;;;;;;-144.99;100.00;76255.72;108417;1253;61363;-72
2024/01/19 01:24:36;;;;;;;15.30;10.50;;;;;;;-144.99;100.00;76271.63;108388;1249;73433;-72
2024/01/19 01:27:03;;;;;;;12.80;9.80;;;;;;;-144.99;100.00;76280.38;108384;1250;73347;-72
2024/01/19 01:29:30;;;;;;;18.20;12.00;;;;;;;-144.99;100.00;76290.73;108409;1250;72406;-72
2024/01/19 01:31:56;;;;;;;14.10;10.30;;;;;;;-144.99;100.00;76302.66;108374;1250;61193;-73
2024/01/19 01:34:23;;;;;;;17.10;11.10;;;;;;;-144.99;100.00;76313.40;108362;1253;61844;-73
2024/01/19 01:36:50;;;;;;;13.00;9.50;;;;;;;-144.99;100.00;76321.75;108405;1250;73505;-72
2024/01/19 01:39:17;;;;;;;11.70;8.80;;;;;;;-144.99;100.00;76330.11;108414;1249;73522;-73
2024/01/19 01:41:44;;;;;;;13.60;9.30;;;;;;;-144.99;100.00;76340.05;108342;1250;71649;-72
2024/01/19 01:44:11;;;;;;;14.80;10.50;;;;;;;-144.99;100.00;76344.03;108348;1250;61120;-72
2024/01/19 01:46:38;;;;;;;16.20;10.90;;;;;;;-144.99;100.00;76340.45;108398;1251;61080;-72
2024/01/19 01:49:05;;;;;;;19.60;12.40;;;;;;;-144.99;100.00;76337.66;108403;1250;74702;-72
2024/01/19 01:51:33;;;;;;;18.90;13.10;;;;;;;-144.99;100.00;76342.44;108378;1250;73600;-72
2024/01/19 01:54:00;;;;;;;19.80;13.60;;;;;;;-144.99;100.00;76351.58;108360;1249;72255;-72
2024/01/19 01:56:27;;;;;;;19.20;13.20;;;;;;;-144.99;100.00;76360.73;108349;1249;60833;-72
2024/01/19 01:58:54;;;;;;;20.80;14.10;;;;;;;-144.99;100.00;76364.72;108453;1250;61109;-72
2024/01/19 02:01:21;;;;;;;19.60;13.30;;;;;;;-144.99;100.00;76366.70;108420;1250;73320;-73
2024/01/19 02:03:48;;;;;;;20.70;15.00;;;;;;;-144.99;100.00;76373.07;108406;1250;73455;-72
2024/01/19 02:06:15;;;;;;;24.60;15.60;;;;;;;-144.99;100.00;76376.24;108433;1250;70223;-72
2024/01/19 02:08:42;;;;;;;23.90;15.60;;;;;;;-144.99;100.00;76371.47;108388;1249;61199;-72
2024/01/19 02:11:10;;;;;;;20.70;13.40;;;;;;;-144.99;100.00;76371.48;108373;1250;61101;-72
2024/01/19 02:13:37;;;;;;;25.80;16.60;;;;;;;-144.99;100.00;76375.85;108351;1250;74608;-72
2024/01/19 02:16:04;;;;;;;21.60;15.10;;;;;;;-144.99;100.00;76373.86;108320;1249;73061;-72
2024/01/19 02:18:30;;;;;;;23.60;16.10;;;;;;;-144.99;100.00;76373.07;108305;1250;72868;-72
2024/01/19 02:20:58;;;;;;;23.90;16.60;;;;;;;-144.99;100.00;76380.23;108347;1250;61076;-73
2024/01/19 02:23:26;;;;;;;24.30;16.60;;;;;;;-144.99;100.00;76379.83;108356;1249;61095;-74
2024/01/19 02:25:53;;;;;;;25.90;16.10;;;;;;;-144.99;100.00;76381.02;108348;1250;73423;-75
2024/01/19 02:28:20;;;;;;;23.70;16.10;;;;;;;-144.99;100.00;76381.82;108354;1250;73538;-74
2024/01/19 02:30:47;;;;;;;24.20;16.50;;;;;;;-144.99;100.00;76381.42;108371;1253;72625;-74
2024/01/19 02:33:14;;;;;;;25.20;16.90;;;;;;;-144.99;100.00;76380.23;108458;1251;61212;-74
2024/01/19 02:35:41;;;;;;;25.50;17.40;;;;;;;-144.99;100.00;76383.02;108347;1250;60950;-75
2024/01/19 02:38:07;;;;;;;30.30;21.90;;;;;;;-144.99;100.00;76386.59;108357;1250;74357;-75
2024/01/19 02:40:34;;;;;;;34.40;20.10;;;;;;;-144.99;100.00;76381.82;108353;1250;73223;-75
2024/01/19 02:43:01;;;;;;;29.20;19.10;;;;;;;-144.99;100.00;76389.77;108344;1250;71367;-74
2024/01/19 02:45:28;;;;;;;31.90;20.70;;;;;;;-144.99;100.00;76396.14;108321;1250;61702;-75
2024/01/19 02:47:54;;;;;;;36.80;21.80;;;;;;;-144.99;100.00;76412.45;108351;1249;61285;-73
2024/01/19 02:50:21;;;;;;;37.60;21.50;;;;;;;-144.99;100.00;76426.77;108389;1250;74702;-72
2024/01/19 02:52:48;;;;;;;33.50;21.40;;;;;;;-144.99;100.00;76439.89;108351;1249;73528;-72
2024/01/19 02:55:15;;;;;;;37.70;23.40;;;;;;;-144.99;100.00;76455.41;108322;1249;72612;-72
2024/01/19 02:57:42;;;;;;;36.50;22.20;;;;;;;-144.99;100.00;76460.98;108313;1250;61110;-72
2024/01/19 03:00:10;;;;;;;36.00;22.50;;;;;;;-144.99;100.00;76465.76;108435;1250;61160;-73
2024/01/19 03:02:37;;;;;;;37.90;23.30;;;;;;;-144.99;100.00;76465.77;108325;1249;73774;-72
2024/01/19 03:05:04;;;;;;;41.80;23.70;;;;;;;-144.99;100.00;76466.95;108340;1250;72038;-72
2024/01/19 03:07:31;;;;;;;39.90;23.20;;;;;;;-144.99;100.00;76472.91;108316;1249;72582;-72
2024/01/19 03:09:58;;;;;;;37.90;22.00;;;;;;;-144.99;100.00;76467.35;108334;1250;61109;-72
2024/01/19 03:12:25;;;;;;;40.60;24.20;;;;;;;-144.99;100.00;76475.30;108396;1250;61111;-72
2024/01/19 03:14:51;;;;;;;39.70;24.30;;;;;;;-144.99;100.00;76484.85;108316;1250;74631;-72
2024/01/19 03:17:19;;;;;;;42.40;24.00;;;;;;;-144.99;100.00;76498.38;108307;1250;73451;-74
2024/01/19 03:19:46;;;;;;;40.10;24.80;;;;;;;-144.99;100.00;76514.29;108355;1253;72607;-72
2024/01/19 03:22:12;;;;;;;43.30;25.20;;;;;;;-144.99;100.00;76524.23;108314;1250;61103;-72
2024/01/19 03:24:39;;;;;;;41.00;25.30;;;;;;;-144.99;100.00;76532.98;108318;1249;61188;-72
2024/01/19 03:27:06;;;;;;;41.00;24.00;;;;;;;-144.99;100.00;76540.15;108283;1250;74654;-73
2024/01/19 03:29:34;;;;;;;40.50;24.40;;;;;;;-144.99;100.00;76549.70;108334;1250;72316;-73
2024/01/19 03:32:00;;;;;;;49.20;27.00;;;;;;;-144.99;100.00;76562.83;108317;1250;72361;-73
2024/01/19 03:34:28;;;;;;;45.30;26.90;;;;;;;-144.99;100.00;76573.56;108335;1250;61076;-72
2024/01/19 03:36:55;;;;;;;47.10;27.20;;;;;;;-144.99;100.00;76583.90;108337;1249;61095;-73
2024/01/19 03:39:23;;;;;;;44.30;26.20;;;;;;;-144.99;100.00;76594.25;108320;1250;73415;-73
2024/01/19 03:41:50;;;;;;;44.40;25.60;;;;;;;-144.99;100.00;76601.41;108344;1250;72453;-72
2024/01/19 03:44:17;;;;;;;42.20;25.30;;;;;;;-144.99;100.00;76606.98;108315;1250;72565;-74
2024/01/19 03:46:44;;;;;;;47.50;27.00;;;;;;;-144.99;100.00;76614.93;108344;1249;61193;-73
2024/01/19 03:49:11;;;;;;;49.40;27.00;;;;;;;-144.99;100.00;76618.91;108373;1250;61177;-75
2024/01/19 03:51:38;;;;;;;43.30;25.80;;;;;;;-144.99;100.00;76630.85;108379;1249;74504;-75
2024/01/19 03:54:04;;;;;;;44.00;26.40;;;;;;;-144.99;100.00;76638.41;108328;1253;73475;-75
2024/01/19 03:56:31;;;;;;;44.90;24.90;;;;;;;-144.99;100.00;76642.39;108311;1253;72423;-72
2024/01/19 03:58:58;;;;;;;38.70;23.30;;;;;;;-144.99;100.00;76648.75;108350;1250;61069;-72
2024/01/19 04:01:25;;;;;;;42.70;25.30;;;;;;;-144.99;100.00;76650.35;108339;1250;60118;-73
2024/01/19 04:03:52;;;;;;;46.10;25.30;;;;;;;-144.99;100.00;76649.55;108352;1250;74582;-73
2024/01/19 04:06:19;;;;;;;42.30;25.30;;;;;;;-144.99;100.00;76649.55;108350;1250;73425;-74
2024/01/19 04:08:46;;;;;;;41.60;25.70;;;;;;;-144.99;100.00;76654.32;108305;1250;71197;-73
2024/01/19 04:11:12;;;;;;;40.00;24.70;;;;;;;-144.99;100.00;76656.71;108306;1250;61068;-73
2024/01/19 04:13:39;;;;;;;38.00;23.60;;;;;;;-144.99;100.00;76653.92;108342;1249;61751;-73
2024/01/19 04:16:06;;;;;;;42.00;25.20;;;;;;;-144.99;100.00;76653.52;108362;1250;74439;-73
2024/01/19 04:18:33;;;;;;;42.00;25.00;;;;;;;-144.99;100.00;76653.13;108338;1250;72480;-73
2024/01/19 04:21:00;;;;;;;47.40;26.80;;;;;;;-144.99;100.00;76656.71;108349;1250;72674;-75
2024/01/19 04:23:27;;;;;;;42.60;24.90;;;;;;;-144.99;100.00;76660.29;108331;1250;61164;-73
2024/01/19 04:25:53;;;;;;;38.50;24.30;;;;;;;-144.99;100.00;76653.52;108375;1250;61185;-72
2024/01/19 04:28:20;;;;;;;41.90;26.00;;;;;;;-144.99;100.00;76649.95;108348;1250;74789;-73
2024/01/19 04:30:47;;;;;;;47.10;25.70;;;;;;;-144.99;100.00;76647.16;108479;1250;73703;-74
2024/01/19 04:33:14;;;;;;;43.90;26.50;;;;;;;-144.99;100.00;76649.15;108333;1250;72606;-73
2024/01/19 04:35:40;;;;;;;48.80;27.40;;;;;;;-144.99;100.00;76652.73;108307;1250;60884;-73
2024/01/19 04:38:07;;;;;;;43.80;25.50;;;;;;;-144.99;100.00;76658.70;108356;1250;61103;-73
2024/01/19 04:40:34;;;;;;;45.50;26.70;;;;;;;-144.99;100.00;76657.90;108475;1250;73487;-73
2024/01/19 04:43:01;;;;;;;47.30;26.30;;;;;;;-144.99;100.00;76659.50;108347;1250;71261;-73
2024/01/19 04:45:29;;;;;;;54.80;29.90;;;;;;;-144.99;100.00;76659.89;108326;1250;72781;-73
2024/01/19 04:47:56;;;;;;;50.60;26.80;;;;;;;-144.99;100.00;76660.29;108314;1249;61227;-73
2024/01/19 04:50:23;;;;;;;44.20;27.40;;;;;;;-144.99;100.00;76656.30;108337;1250;61064;-73
2024/01/19 04:52:50;;;;;;;45.90;26.40;;;;;;;-144.99;100.00;76657.10;108385;1254;74566;-73
2024/01/19 04:55:18;;;;;;;44.00;27.00;;;;;;;-144.99;100.00;76661.48;108372;1250;72396;-73
2024/01/19 04:57:45;;;;;;;41.90;25.60;;;;;;;-144.99;100.00;76665.46;108311;1250;71538;-73
2024/01/19 05:00:13;;;;;;;44.50;25.00;;;;;;;-144.99;100.00;76666.65;108312;1250;61185;-73
2024/01/19 05:02:42;;;;;;;47.60;27.70;;;;;;;-144.99;100.00;76676.99;108391;1249;61113;-73
2024/01/19 05:05:09;;;;;;;45.10;27.80;;;;;;;-144.99;100.00;76681.38;108386;1253;72334;-73
2024/01/19 05:07:36;;;;;;;45.70;25.90;;;;;;;-144.99;100.00;76687.34;108350;1250;73642;-73
2024/01/19 05:10:05;;;;;;;56.90;28.10;;;;;;;-144.99;100.00;76693.31;108287;1250;72737;-73
2024/01/19 05:12:32;;;;;;;52.40;29.40;;;;;;;-144.99;100.00;76706.04;108361;1254;61088;-73
2024/01/19 05:14:59;;;;;;;44.90;26.80;;;;;;;-144.99;100.00;76719.57;108365;1250;61120;-73
2024/01/19 05:17:26;;;;;;;50.80;29.50;;;;;;;-144.99;100.00;76721.55;108331;1253;74603;-73
2024/01/19 05:19:55;;;;;;;51.10;28.50;;;;;;;-144.99;100.00;76729.52;108322;1250;73531;-74
2024/01/19 05:22:21;;;;;;;47.50;26.60;;;;;;;-144.99;100.00;76739.45;108343;1250;72270;-73
2024/01/19 05:24:49;;;;;;;47.50;27.10;;;;;;;-144.99;100.00;76752.59;108326;1250;61215;-73
2024/01/19 05:27:15;;;;;;;51.60;28.10;;;;;;;-144.99;100.00;76765.31;108319;1251;61211;-73
2024/01/19 05:29:42;;;;;;;49.50;27.70;;;;;;;-144.99;100.00;76776.45;108308;1250;73467;-73
2024/01/19 05:32:10;;;;;;;49.10;27.30;;;;;;;-144.99;100.00;76786.80;108316;1250;73373;-73
2024/01/19 05:34:37;;;;;;;44.20;25.40;;;;;;;-144.99;100.00;76799.52;108290;1249;70471;-73
2024/01/19 05:37:04;;;;;;;45.70;25.30;;;;;;;-144.99;100.00;76813.05;108288;1250;61000;-72
2024/01/19 05:39:31;;;;;;;46.60;26.80;;;;;;;-144.99;100.00;76826.98;108316;1250;61305;-73
2024/01/19 05:41:58;;;;;;;45.60;25.70;;;;;;;-144.99;100.00;76846.08;108320;1253;74621;-73
2024/01/19 05:44:24;;;;;;;51.70;28.20;;;;;;;-144.99;100.00;76862.79;108321;1250;73792;-74
2024/01/19 05:46:51;;;;;;;54.10;28.10;;;;;;;-144.99;100.00;76873.52;108315;1250;72622;-73
2024/01/19 05:49:18;;;;;;;51.60;28.10;;;;;;;-144.99;100.00;76883.08;108286;1250;61255;-74
2024/01/19 05:51:45;;;;;;;47.60;27.30;;;;;;;-144.99;100.00;76888.25;108408;1250;61108;-74
2024/01/19 05:54:12;;;;;;;54.20;28.30;;;;;;;-144.99;100.00;76894.61;108340;1250;74160;-75
2024/01/19 05:56:39;;;;;;;55.60;30.40;;;;;;;-144.99;100.00;76909.34;108301;1250;73340;-73
2024/01/19 05:59:05;;;;;;;53.20;27.50;;;;;;;-144.99;100.00;76924.45;108330;1250;72839;-74
2024/01/19 06:01:32;;;;;;;45.40;25.80;;;;;;;-144.99;100.00;76933.20;108339;1250;60158;-73
2024/01/19 06:04:00;;;;;;;52.80;28.70;;;;;;;-144.99;100.00;76936.39;108336;1250;61117;-74
2024/01/19 06:06:27;;;;;;;50.70;27.40;;;;;;;-144.99;100.00;76944.75;108321;1250;72680;-74
2024/01/19 06:08:54;;;;;;;52.00;27.00;;;;;;;-144.99;100.00;76947.13;108312;1250;73626;-73
2024/01/19 06:11:21;;;;;;;53.20;27.50;;;;;;;-144.99;100.00;76949.92;108315;1249;70631;-74
2024/01/19 06:13:49;;;;;;;56.80;29.10;;;;;;;-144.99;100.00;76954.30;108255;1249;61193;-74
2024/01/19 06:16:16;;;;;;;54.80;28.10;;;;;;;-144.99;100.00;76957.88;108296;1254;60129;-75
2024/01/19 06:18:43;;;;;;;59.40;32.00;;;;;;;-144.99;100.00;76958.27;108435;1250;74589;-75
2024/01/19 06:21:10;;;;;;;57.00;29.60;;;;;;;-144.99;100.00;76955.48;108306;1250;72457;-75
2024/01/19 06:23:38;;;;;;;59.40;29.40;;;;;;;-144.99;100.00;76948.33;108213;1250;71559;-75
2024/01/19 06:26:09;;;;;;;59.60;30.70;;;;;;;-144.99;100.00;76944.35;108220;1250;61505;-74
2024/01/19 06:28:40;;;;;;;51.40;28.50;;;;;;;-144.99;100.00;76942.36;108344;1251;60992;-74
2024/01/19 06:31:10;;;;;;;43.50;25.90;;;;;;;-144.99;100.00;76937.58;108212;1250;74524;-76
2024/01/19 06:33:37;;;;;;;52.40;27.90;;;;;;;-144.99;100.00;76935.59;108269;1250;73338;-74
2024/01/19 06:36:09;;;;;;;50.60;28.30;;;;;;;-144.99;100.00;76928.83;108227;1250;70673;-74
2024/01/19 06:38:36;;;;;;;50.60;27.70;;;;;;;-144.99;100.00;76920.08;108295;1253;61211;-74
2024/01/19 06:41:05;;;;;;;57.40;31.20;;;;;;;-144.99;100.00;76916.50;108215;1250;61128;-74
2024/01/19 06:43:32;;;;;;;44.40;25.50;;;;;;;-144.99;100.00;76910.14;108201;1250;76203;-74
2024/01/19 06:45:59;;;;;;;42.10;24.40;;;;;;;-144.99;100.00;76908.15;108246;1253;73241;-75
2024/01/19 06:48:26;;;;;;;45.60;24.90;;;;;;;-144.99;100.00;76906.16;108358;1251;71450;-75
2024/01/19 06:50:53;;;;;;;39.40;23.30;;;;;;;-144.99;100.00;76898.59;108293;1250;61105;-74
2024/01/19 06:53:20;;;;;;;43.00;24.70;;;;;;;-144.99;100.00;76892.63;108344;1251;61138;-74
2024/01/19 06:55:47;;;;;;;40.00;23.50;;;;;;;-144.99;100.00;76882.67;108270;1253;74591;-75
2024/01/19 06:58:14;;;;;;;40.40;23.90;;;;;;;-144.99;100.00;76872.34;108328;1251;72431;-73
2024/01/19 07:00:43;;;;;;;39.50;23.70;;;;;;;-144.99;100.00;76865.97;108389;1250;72794;-74
2024/01/19 07:03:10;;;;;;;44.40;23.50;;;;;;;-144.99;100.00;76866.77;108288;1250;61189;-74
2024/01/19 07:05:38;;;;;;;44.20;23.80;;;;;;;-144.99;100.00;76869.55;108438;1251;61085;-75
2024/01/19 07:08:05;;;;;;;42.60;23.60;;;;;;;-144.99;100.00;76863.59;108433;1251;74345;-75
2024/01/19 07:10:32;;;;;;;39.50;23.90;;;;;;;-144.99;100.00;76863.19;108299;1251;72449;-76
2024/01/19 07:12:59;;;;;;;44.10;25.60;;;;;;;-144.99;100.00;76862.79;108366;1250;70689;-75
2024/01/19 07:15:27;;;;;;;45.80;25.40;;;;;;;-144.99;100.00;76860.80;108310;1251;60954;-76
2024/01/19 07:17:54;;;;;;;50.00;27.80;;;;;;;-144.99;100.00;76865.17;108390;1249;61310;-76
2024/01/19 07:20:21;;;;;;;48.00;26.20;;;;;;;-144.99;100.00;76865.17;108258;1250;75155;-77
2024/01/19 07:22:51;;;;;;;43.00;25.10;;;;;;;-144.99;100.00;76860.80;108262;1252;74415;-75
2024/01/19 07:25:18;;;;;;;41.60;24.90;;;;;;;-144.99;100.00;76850.06;108361;1254;72488;-76
2024/01/19 07:27:45;;;;;;;43.10;23.50;;;;;;;-144.99;100.00;76850.45;108333;1250;61276;-76
